createdAt,value
2023-03-18T00:00:56.153Z,13.12
2023-03-18T00:01:56.149Z,13.16
2023-03-18T00:02:56.192Z,13.13
2023-03-18T00:03:56.156Z,13.09
2023-03-18T00:04:56.074Z,13.11
2023-03-18T00:05:56.050Z,13.08
2023-03-18T00:06:56.036Z,13.08
2023-03-18T00:07:56.005Z,13.11
2023-03-18T00:08:55.968Z,13.08
2023-03-18T00:09:55.931Z,13.11
2023-03-18T00:10:55.903Z,13.05
2023-03-18T00:11:55.915Z,13.03
2023-03-18T00:12:55.899Z,13.08
2023-03-18T00:13:55.831Z,13.03
2023-03-18T00:14:55.815Z,13.03
2023-03-18T00:15:55.833Z,13.05
2023-03-18T00:16:55.770Z,13.05
2023-03-18T00:17:55.748Z,13.06
2023-03-18T00:18:55.752Z,13.03
2023-03-18T00:19:55.770Z,13.05
2023-03-18T00:20:55.679Z,13.08
2023-03-18T00:21:55.657Z,13.09
2023-03-18T00:22:55.623Z,13.08
2023-03-18T00:23:55.575Z,13.11
2023-03-18T00:24:55.560Z,13.09
2023-03-18T00:25:55.568Z,13.13
2023-03-18T00:26:55.544Z,13.08
2023-03-18T00:27:55.482Z,13.05
2023-03-18T00:28:55.456Z,13.13
2023-03-18T00:29:55.436Z,13.13
2023-03-18T00:30:55.462Z,13.09
2023-03-18T00:31:55.394Z,13.08
2023-03-18T00:32:55.409Z,13.08
2023-03-18T00:33:55.344Z,13.09
2023-03-18T00:34:55.320Z,13.16
2023-03-18T00:35:55.391Z,13.12
2023-03-18T00:36:55.304Z,13.08
2023-03-18T00:37:55.240Z,13.06
2023-03-18T00:38:55.212Z,13.09
2023-03-18T00:39:55.222Z,13.11
2023-03-18T00:40:55.166Z,13.16
2023-03-18T00:41:55.165Z,13.13
2023-03-18T00:42:55.104Z,13.12
2023-03-18T00:43:55.087Z,13.16
2023-03-18T00:44:55.046Z,13.09
2023-03-18T00:45:55.049Z,13.11
2023-03-18T00:46:55.039Z,13.17
2023-03-18T00:47:54.985Z,13.08
2023-03-18T00:48:54.984Z,13.12
2023-03-18T00:49:54.951Z,13.09
2023-03-18T00:50:54.919Z,13.11
2023-03-18T00:51:54.862Z,13.11
2023-03-18T00:52:54.841Z,13.12
2023-03-18T00:53:54.824Z,13.09
2023-03-18T00:54:54.809Z,13.09
2023-03-18T00:55:54.795Z,13.12
2023-03-18T00:56:54.767Z,13.11
2023-03-18T00:57:54.743Z,13.03
2023-03-18T00:58:54.704Z,13.02
2023-03-18T00:59:54.695Z,13.09
2023-03-18T01:00:54.682Z,13.05
2023-03-18T01:01:54.637Z,13.09
2023-03-18T01:02:54.600Z,13.02
2023-03-18T01:03:54.564Z,13.05
2023-03-18T01:04:54.551Z,13.08
2023-03-18T01:05:54.522Z,13.01
2023-03-18T01:06:54.507Z,12.99
2023-03-18T01:07:54.456Z,13.02
2023-03-18T01:08:54.421Z,13.03
2023-03-18T01:09:54.419Z,12.95
2023-03-18T01:10:54.428Z,12.99
2023-03-18T01:11:54.378Z,12.99
2023-03-18T01:12:55.888Z,13.01
2023-03-18T01:13:54.326Z,12.95
2023-03-18T01:14:54.297Z,12.93
2023-03-18T01:15:54.242Z,12.98
2023-03-18T01:16:54.237Z,12.99
2023-03-18T01:17:54.205Z,12.95
2023-03-18T01:18:54.202Z,12.99
2023-03-18T01:19:54.158Z,12.99
2023-03-18T01:20:54.124Z,12.90
2023-03-18T01:21:54.134Z,12.95
2023-03-18T01:22:54.106Z,12.91
2023-03-18T01:23:54.069Z,12.88
2023-03-18T01:24:54.037Z,12.91
2023-03-18T01:25:54.003Z,12.87
2023-03-18T01:26:53.990Z,12.91
2023-03-18T01:27:53.953Z,12.93
2023-03-18T01:28:53.955Z,12.91
2023-03-18T01:29:53.920Z,12.93
2023-03-18T01:30:53.883Z,12.87
2023-03-18T01:31:53.859Z,12.91
2023-03-18T01:32:54.026Z,12.86
2023-03-18T01:33:53.797Z,12.90
2023-03-18T01:34:53.770Z,12.91
2023-03-18T01:35:53.758Z,12.87
2023-03-18T01:36:53.711Z,12.87
2023-03-18T01:37:53.705Z,12.95
2023-03-18T01:38:53.771Z,12.91
2023-03-18T01:39:53.657Z,12.93
2023-03-18T01:40:53.622Z,12.95
2023-03-18T01:41:53.602Z,12.93
2023-03-18T01:42:53.564Z,12.88
2023-03-18T01:43:53.542Z,12.91
2023-03-18T01:44:53.500Z,12.94
2023-03-18T01:45:53.560Z,12.94
2023-03-18T01:46:53.479Z,12.90
2023-03-18T01:47:53.448Z,12.93
2023-03-18T01:48:53.428Z,12.94
2023-03-18T01:49:53.414Z,12.93
2023-03-18T01:50:53.360Z,12.84
2023-03-18T01:51:53.342Z,12.81
2023-03-18T01:52:53.340Z,12.84
2023-03-18T01:53:53.319Z,12.87
2023-03-18T01:54:53.314Z,12.87
2023-03-18T01:55:53.284Z,12.86
2023-03-18T01:56:53.231Z,12.84
2023-03-18T01:57:53.198Z,12.81
2023-03-18T01:58:53.170Z,12.73
2023-03-18T01:59:53.135Z,12.76
2023-03-18T02:00:53.124Z,12.76
2023-03-18T02:01:53.099Z,12.72
2023-03-18T02:02:53.073Z,12.72
2023-03-18T02:03:53.040Z,12.73
2023-03-18T02:04:53.041Z,12.78
2023-03-18T02:05:52.997Z,12.73
2023-03-18T02:06:52.943Z,12.69
2023-03-18T02:07:52.932Z,12.55
2023-03-18T02:08:52.934Z,12.66
2023-03-18T02:09:52.880Z,12.62
2023-03-18T02:10:52.861Z,12.69
2023-03-18T02:11:52.823Z,12.61
2023-03-18T02:12:52.813Z,12.63
2023-03-18T02:13:52.770Z,12.65
2023-03-18T02:14:52.753Z,12.63
2023-03-18T02:15:52.720Z,12.62
2023-03-18T02:16:52.758Z,12.61
2023-03-18T02:17:52.674Z,12.62
2023-03-18T02:18:52.662Z,12.61
2023-03-18T02:19:52.622Z,12.61
2023-03-18T02:20:52.590Z,12.55
2023-03-18T02:21:52.576Z,12.62
2023-03-18T02:22:52.564Z,12.62
2023-03-18T02:23:52.512Z,12.58
2023-03-18T02:24:52.528Z,12.62
2023-03-18T02:25:52.519Z,12.57
2023-03-18T02:26:52.447Z,12.61
2023-03-18T02:27:52.400Z,12.66
2023-03-18T02:28:52.383Z,12.61
2023-03-18T02:29:52.374Z,12.62
2023-03-18T02:30:52.503Z,12.65
2023-03-18T02:31:52.317Z,12.62
2023-03-18T02:32:52.390Z,12.58
2023-03-18T02:33:52.282Z,12.62
2023-03-18T02:34:52.281Z,12.63
2023-03-18T02:35:52.222Z,12.65
2023-03-18T02:36:52.213Z,12.63
2023-03-18T02:37:52.237Z,12.57
2023-03-18T02:38:52.134Z,12.61
2023-03-18T02:39:52.130Z,12.57
2023-03-18T02:40:52.173Z,12.62
2023-03-18T02:41:52.081Z,12.58
2023-03-18T02:42:52.054Z,12.53
2023-03-18T02:43:52.055Z,12.57
2023-03-18T02:44:52.003Z,12.55
2023-03-18T02:45:52.003Z,12.45
2023-03-18T02:46:51.964Z,12.48
2023-03-18T02:47:51.898Z,12.48
2023-03-18T02:48:51.884Z,12.45
2023-03-18T02:49:51.842Z,12.43
2023-03-18T02:50:51.821Z,12.33
2023-03-18T02:51:51.819Z,12.44
2023-03-18T02:52:51.793Z,12.44
2023-03-18T02:53:51.759Z,12.45
2023-03-18T02:54:51.722Z,12.45
2023-03-18T02:55:51.706Z,12.33
2023-03-18T02:56:51.686Z,12.33
2023-03-18T02:57:51.650Z,12.35
2023-03-18T02:58:51.848Z,12.39
2023-03-18T02:59:51.585Z,12.28
2023-03-18T03:00:51.578Z,12.35
2023-03-18T03:01:51.662Z,12.32
2023-03-18T03:02:51.677Z,12.29
2023-03-18T03:03:51.499Z,12.30
2023-03-18T03:04:51.482Z,12.25
2023-03-18T03:05:51.423Z,12.28
2023-03-18T03:06:51.401Z,12.36
2023-03-18T03:07:51.406Z,12.33
2023-03-18T03:08:51.372Z,12.36
2023-03-18T03:09:51.351Z,12.35
2023-03-18T03:10:51.327Z,12.32
2023-03-18T03:11:51.302Z,12.32
2023-03-18T03:12:51.264Z,12.33
2023-03-18T03:13:51.233Z,12.20
2023-03-18T03:14:51.238Z,12.23
2023-03-18T03:15:51.261Z,12.32
2023-03-18T03:16:51.154Z,12.21
2023-03-18T03:17:51.140Z,12.26
2023-03-18T03:18:51.109Z,12.23
2023-03-18T03:19:51.084Z,12.18
2023-03-18T03:20:51.048Z,12.23
2023-03-18T03:21:51.040Z,12.25
2023-03-18T03:22:51.029Z,12.17
2023-03-18T03:23:50.963Z,12.26
2023-03-18T03:24:50.958Z,12.20
2023-03-18T03:25:50.936Z,12.12
2023-03-18T03:26:50.913Z,12.12
2023-03-18T03:27:50.865Z,12.12
2023-03-18T03:28:50.862Z,12.20
2023-03-18T03:29:50.828Z,12.12
2023-03-18T03:30:50.849Z,12.12
2023-03-18T03:31:50.823Z,12.15
2023-03-18T03:32:50.835Z,12.10
2023-03-18T03:33:50.731Z,12.21
2023-03-18T03:34:50.713Z,12.07
2023-03-18T03:35:50.714Z,12.15
2023-03-18T03:36:50.657Z,12.10
2023-03-18T03:37:50.617Z,12.17
2023-03-18T03:38:50.629Z,12.15
2023-03-18T03:39:50.564Z,12.11
2023-03-18T03:40:50.555Z,12.15
2023-03-18T03:41:50.512Z,12.17
2023-03-18T03:42:50.509Z,12.26
2023-03-18T03:43:50.477Z,12.20
2023-03-18T03:44:50.425Z,12.20
2023-03-18T03:45:50.428Z,12.21
2023-03-18T03:46:50.618Z,12.17
2023-03-18T03:47:50.346Z,12.20
2023-03-18T03:48:50.361Z,12.23
2023-03-18T03:49:50.304Z,12.17
2023-03-18T03:50:50.313Z,12.21
2023-03-18T03:51:50.280Z,12.18
2023-03-18T03:52:50.260Z,12.25
2023-03-18T03:53:50.239Z,12.21
2023-03-18T03:54:50.184Z,12.23
2023-03-18T03:55:50.160Z,12.25
2023-03-18T03:56:50.173Z,12.21
2023-03-18T03:57:50.118Z,12.17
2023-03-18T03:58:50.104Z,12.21
2023-03-18T03:59:50.044Z,12.21
2023-03-18T04:00:50.012Z,12.25
2023-03-18T04:01:49.985Z,12.21
2023-03-18T04:02:50.120Z,12.21
2023-03-18T04:03:49.984Z,12.26
2023-03-18T04:04:49.938Z,12.23
2023-03-18T04:05:49.883Z,12.26
2023-03-18T04:06:49.875Z,12.21
2023-03-18T04:07:49.863Z,12.30
2023-03-18T04:08:49.802Z,12.23
2023-03-18T04:09:49.841Z,12.23
2023-03-18T04:10:49.780Z,12.20
2023-03-18T04:11:49.733Z,12.23
2023-03-18T04:12:49.740Z,12.32
2023-03-18T04:13:49.683Z,12.29
2023-03-18T04:14:51.755Z,12.32
2023-03-18T04:15:49.746Z,12.30
2023-03-18T04:16:49.609Z,12.28
2023-03-18T04:17:49.615Z,12.28
2023-03-18T04:18:49.598Z,12.32
2023-03-18T04:19:49.539Z,12.32
2023-03-18T04:20:49.520Z,12.32
2023-03-18T04:21:49.476Z,12.35
2023-03-18T04:22:49.469Z,12.33
2023-03-18T04:23:49.483Z,12.32
2023-03-18T04:24:49.427Z,12.33
2023-03-18T04:25:49.396Z,12.40
2023-03-18T04:26:49.369Z,12.40
2023-03-18T04:27:49.335Z,12.37
2023-03-18T04:28:49.315Z,12.40
2023-03-18T04:29:49.291Z,12.40
2023-03-18T04:30:49.250Z,12.35
2023-03-18T04:31:49.295Z,12.36
2023-03-18T04:32:49.241Z,12.35
2023-03-18T04:33:49.170Z,12.43
2023-03-18T04:34:49.173Z,12.37
2023-03-18T04:35:49.177Z,12.36
2023-03-18T04:36:49.140Z,12.39
2023-03-18T04:37:49.072Z,12.37
2023-03-18T04:38:49.065Z,12.36
2023-03-18T04:39:49.034Z,12.47
2023-03-18T04:40:48.999Z,12.51
2023-03-18T04:41:48.975Z,12.37
2023-03-18T04:42:48.959Z,12.39
2023-03-18T04:43:48.937Z,12.44
2023-03-18T04:44:48.908Z,12.40
2023-03-18T04:45:48.877Z,12.36
2023-03-18T04:46:48.911Z,12.33
2023-03-18T04:47:48.813Z,12.39
2023-03-18T04:48:48.791Z,12.50
2023-03-18T04:49:48.774Z,12.44
2023-03-18T04:50:48.766Z,12.44
2023-03-18T04:51:48.701Z,12.48
2023-03-18T04:52:48.692Z,12.44
2023-03-18T04:53:48.665Z,12.51
2023-03-18T04:54:48.639Z,12.47
2023-03-18T04:55:48.613Z,12.40
2023-03-18T04:56:48.618Z,12.44
2023-03-18T04:57:48.539Z,12.43
2023-03-18T04:58:48.543Z,12.39
2023-03-18T04:59:48.506Z,12.47
2023-03-18T05:00:48.515Z,12.45
2023-03-18T05:01:48.447Z,12.43
2023-03-18T05:02:48.447Z,12.35
2023-03-18T05:03:48.429Z,12.35
2023-03-18T05:04:48.367Z,12.33
2023-03-18T05:05:48.359Z,12.43
2023-03-18T05:06:48.364Z,12.35
2023-03-18T05:07:48.300Z,12.32
2023-03-18T05:08:48.261Z,12.36
2023-03-18T05:09:48.265Z,12.35
2023-03-18T05:10:48.235Z,12.36
2023-03-18T05:11:48.184Z,12.30
2023-03-18T05:12:48.186Z,12.30
2023-03-18T05:13:48.147Z,12.32
2023-03-18T05:14:48.136Z,12.32
2023-03-18T05:15:48.108Z,12.35
2023-03-18T05:16:48.149Z,12.35
2023-03-18T05:17:48.066Z,12.33
2023-03-18T05:18:48.020Z,12.26
2023-03-18T05:19:48.007Z,12.35
2023-03-18T05:20:47.968Z,12.28
2023-03-18T05:21:47.942Z,12.30
2023-03-18T05:22:47.931Z,12.35
2023-03-18T05:23:47.880Z,12.30
2023-03-18T05:24:47.878Z,12.28
2023-03-18T05:25:47.856Z,12.30
2023-03-18T05:26:47.922Z,12.29
2023-03-18T05:27:47.801Z,12.36
2023-03-18T05:28:47.786Z,12.29
2023-03-18T05:29:47.728Z,12.32
2023-03-18T05:30:47.699Z,12.36
2023-03-18T05:31:47.763Z,12.29
2023-03-18T05:32:47.691Z,12.35
2023-03-18T05:33:47.659Z,12.33
2023-03-18T05:34:47.608Z,12.33
2023-03-18T05:35:47.611Z,12.29
2023-03-18T05:36:47.569Z,12.30
2023-03-18T05:37:47.529Z,12.30
2023-03-18T05:38:47.546Z,12.30
2023-03-18T05:39:47.521Z,12.30
2023-03-18T05:40:47.458Z,12.36
2023-03-18T05:41:47.497Z,12.20
2023-03-18T05:42:55.709Z,12.23
2023-03-18T05:43:47.382Z,12.25
2023-03-18T05:44:47.366Z,12.26
2023-03-18T05:45:47.359Z,12.23
2023-03-18T05:46:47.298Z,12.12
2023-03-18T05:47:47.288Z,12.12
2023-03-18T05:48:47.291Z,12.12
2023-03-18T05:49:47.230Z,12.11
2023-03-18T05:50:47.203Z,12.07
2023-03-18T05:51:47.166Z,11.99
2023-03-18T05:52:47.135Z,12.03
2023-03-18T05:53:47.117Z,11.97
2023-03-18T05:54:47.105Z,11.97
2023-03-18T05:55:47.079Z,11.99
2023-03-18T05:56:47.083Z,11.96
2023-03-18T05:57:47.001Z,12.02
2023-03-18T05:58:47.014Z,11.91
2023-03-18T05:59:47.002Z,11.91
2023-03-18T06:00:47.009Z,11.93
2023-03-18T06:01:46.916Z,11.83
2023-03-18T06:02:46.902Z,11.86
2023-03-18T06:03:46.973Z,11.93
2023-03-18T06:04:46.829Z,11.93
2023-03-18T06:05:46.820Z,11.86
2023-03-18T06:06:46.787Z,11.78
2023-03-18T06:07:46.767Z,11.81
2023-03-18T06:08:46.749Z,11.85
2023-03-18T06:09:46.718Z,11.78
2023-03-18T06:10:46.681Z,11.85
2023-03-18T06:11:46.661Z,11.89
2023-03-18T06:12:46.621Z,11.73
2023-03-18T06:13:46.602Z,11.76
2023-03-18T06:14:46.574Z,11.78
2023-03-18T06:15:47.683Z,11.65
2023-03-18T06:16:46.590Z,11.70
2023-03-18T06:17:46.517Z,11.70
2023-03-18T06:18:46.492Z,11.71
2023-03-18T06:19:46.457Z,11.59
2023-03-18T06:20:46.455Z,11.68
2023-03-18T06:21:46.385Z,11.67
2023-03-18T06:22:46.388Z,11.58
2023-03-18T06:23:46.344Z,11.59
2023-03-18T06:24:48.320Z,11.68
2023-03-18T06:25:46.312Z,11.67
2023-03-18T06:26:46.286Z,11.68
2023-03-18T06:27:46.246Z,11.71
2023-03-18T06:28:46.263Z,11.68
2023-03-18T06:29:46.198Z,11.71
2023-03-18T06:30:46.206Z,11.68
2023-03-18T06:31:46.160Z,11.76
2023-03-18T06:32:46.264Z,11.71
2023-03-18T06:33:46.099Z,11.68
2023-03-18T06:34:46.082Z,11.74
2023-03-18T06:35:46.147Z,11.77
2023-03-18T06:36:46.029Z,11.76
2023-03-18T06:37:46.024Z,11.74
2023-03-18T06:38:45.957Z,11.76
2023-03-18T06:39:45.948Z,11.88
2023-03-18T06:40:45.905Z,11.85
2023-03-18T06:41:45.877Z,11.80
2023-03-18T06:42:45.859Z,11.88
2023-03-18T06:43:45.844Z,11.85
2023-03-18T06:44:45.803Z,11.86
2023-03-18T06:45:45.764Z,11.91
2023-03-18T06:46:45.761Z,12.00
2023-03-18T06:47:45.734Z,11.97
2023-03-18T06:48:45.800Z,11.95
2023-03-18T06:49:45.735Z,11.96
2023-03-18T06:50:45.670Z,11.99
2023-03-18T06:51:45.677Z,12.07
2023-03-18T06:52:45.601Z,12.00
2023-03-18T06:53:45.585Z,12.07
2023-03-18T06:54:45.571Z,12.10
2023-03-18T06:55:45.523Z,12.10
2023-03-18T06:56:46.409Z,12.10
2023-03-18T06:57:45.445Z,12.14
2023-03-18T06:58:45.448Z,12.14
2023-03-18T06:59:45.404Z,12.17
2023-03-18T07:00:45.555Z,12.21
2023-03-18T07:01:45.415Z,12.23
2023-03-18T07:02:45.345Z,12.20
2023-03-18T07:03:45.307Z,12.33
2023-03-18T07:04:45.327Z,12.25
2023-03-18T07:05:45.261Z,12.39
2023-03-18T07:06:45.222Z,12.36
2023-03-18T07:07:45.207Z,12.45
2023-03-18T07:08:45.162Z,12.45
2023-03-18T07:09:45.143Z,12.45
2023-03-18T07:10:45.109Z,12.50
2023-03-18T07:11:45.083Z,12.47
2023-03-18T07:12:45.076Z,12.40
2023-03-18T07:13:45.090Z,12.53
2023-03-18T07:14:45.047Z,12.53
2023-03-18T07:15:45.068Z,12.57
2023-03-18T07:16:44.965Z,12.51
2023-03-18T07:17:44.942Z,12.53
2023-03-18T07:18:44.957Z,12.45
2023-03-18T07:19:44.929Z,12.61
2023-03-18T07:20:44.927Z,12.53
2023-03-18T07:21:44.850Z,12.57
2023-03-18T07:22:44.824Z,12.61
2023-03-18T07:23:44.812Z,12.63
2023-03-18T07:24:44.764Z,12.61
2023-03-18T07:25:44.856Z,12.61
2023-03-18T07:26:45.076Z,12.57
2023-03-18T07:27:44.677Z,12.76
2023-03-18T07:28:44.674Z,12.72
2023-03-18T07:29:45.107Z,12.80
2023-03-18T07:30:44.635Z,12.72
2023-03-18T07:31:44.636Z,12.72
2023-03-18T07:32:44.610Z,12.87
2023-03-18T07:33:44.525Z,12.75
2023-03-18T07:34:44.531Z,12.75
2023-03-18T07:35:44.490Z,12.84
2023-03-18T07:36:44.454Z,12.80
2023-03-18T07:37:44.425Z,12.90
2023-03-18T07:38:44.400Z,12.87
2023-03-18T07:39:44.376Z,12.86
2023-03-18T07:40:44.392Z,12.88
2023-03-18T07:41:44.346Z,12.83
2023-03-18T07:42:44.299Z,12.87
2023-03-18T07:43:44.317Z,12.84
2023-03-18T07:44:44.243Z,12.91
2023-03-18T07:45:44.223Z,12.91
2023-03-18T07:46:44.267Z,12.91
2023-03-18T07:47:46.986Z,12.83
2023-03-18T07:48:44.172Z,12.91
2023-03-18T07:49:44.163Z,12.87
2023-03-18T07:50:44.118Z,12.81
2023-03-18T07:51:44.079Z,12.83
2023-03-18T07:52:44.034Z,12.86
2023-03-18T07:53:44.014Z,12.78
2023-03-18T07:54:43.983Z,12.84
2023-03-18T07:55:43.983Z,12.83
2023-03-18T07:56:44.048Z,12.83
2023-03-18T07:57:43.946Z,12.83
2023-03-18T07:58:43.889Z,12.73
2023-03-18T07:59:43.878Z,12.83
2023-03-18T08:00:43.882Z,12.83
2023-03-18T08:01:43.818Z,12.86
2023-03-18T08:02:43.805Z,12.86
2023-03-18T08:03:43.856Z,12.94
2023-03-18T08:04:43.789Z,12.86
2023-03-18T08:05:43.729Z,12.95
2023-03-18T08:06:43.730Z,12.99
2023-03-18T08:07:43.688Z,13.03
2023-03-18T08:08:43.663Z,13.08
2023-03-18T08:09:43.620Z,13.12
2023-03-18T08:10:43.592Z,13.28
2023-03-18T08:11:43.576Z,13.21
2023-03-18T08:12:52.536Z,13.37
2023-03-18T08:13:43.554Z,13.33
2023-03-18T08:14:43.482Z,13.33
2023-03-18T08:15:43.491Z,13.43
2023-03-18T08:16:43.448Z,13.30
2023-03-18T08:17:43.425Z,13.28
2023-03-18T08:18:43.408Z,13.42
2023-03-18T08:19:43.359Z,13.39
2023-03-18T08:20:43.336Z,13.30
2023-03-18T08:21:43.325Z,13.20
2023-03-18T08:22:43.301Z,13.17
2023-03-18T08:23:43.240Z,13.21
2023-03-18T08:24:45.447Z,13.21
2023-03-18T08:25:43.208Z,13.23
2023-03-18T08:26:43.208Z,13.23
2023-03-18T08:27:43.186Z,13.20
2023-03-18T08:28:43.168Z,13.12
2023-03-18T08:29:43.127Z,13.11
2023-03-18T08:30:43.080Z,13.11
2023-03-18T08:31:43.126Z,13.06
2023-03-18T08:32:43.112Z,13.06
2023-03-18T08:33:43.002Z,13.11
2023-03-18T08:34:43.001Z,12.99
2023-03-18T08:35:43.083Z,13.05
2023-03-18T08:36:42.959Z,12.99
2023-03-18T08:37:42.985Z,12.99
2023-03-18T08:38:42.936Z,12.98
2023-03-18T08:39:42.878Z,12.94
2023-03-18T08:40:42.830Z,13.05
2023-03-18T08:41:44.803Z,13.06
2023-03-18T08:42:42.784Z,13.11
2023-03-18T08:43:42.871Z,13.09
2023-03-18T08:44:42.751Z,13.11
2023-03-18T08:45:42.773Z,13.12
2023-03-18T08:46:42.672Z,13.16
2023-03-18T08:47:42.686Z,13.20
2023-03-18T08:48:42.673Z,13.17
2023-03-18T08:49:42.622Z,13.19
2023-03-18T08:50:42.585Z,13.11
2023-03-18T08:51:42.560Z,13.17
2023-03-18T08:52:42.582Z,13.16
2023-03-18T08:53:42.498Z,13.21
2023-03-18T08:54:42.477Z,13.23
2023-03-18T08:55:42.465Z,13.20
2023-03-18T08:56:42.423Z,13.24
2023-03-18T08:57:42.406Z,13.20
2023-03-18T08:58:42.387Z,13.26
2023-03-18T08:59:42.357Z,13.28
2023-03-18T09:00:42.416Z,13.31
2023-03-18T09:01:42.373Z,13.28
2023-03-18T09:02:42.357Z,13.33
2023-03-18T09:03:42.293Z,13.33
2023-03-18T09:04:42.239Z,13.33
2023-03-18T09:05:42.213Z,13.30
2023-03-18T09:06:42.261Z,13.30
2023-03-18T09:07:42.160Z,13.28
2023-03-18T09:08:42.135Z,13.43
2023-03-18T09:09:43.966Z,13.33
2023-03-18T09:10:42.147Z,13.40
2023-03-18T09:11:42.098Z,13.43
2023-03-18T09:12:42.120Z,13.58
2023-03-18T09:13:42.031Z,13.61
2023-03-18T09:14:41.966Z,13.67
2023-03-18T09:15:41.961Z,13.61
2023-03-18T09:16:41.974Z,13.58
2023-03-18T09:17:56.653Z,13.55
2023-03-18T09:18:44.281Z,13.65
2023-03-18T09:19:41.878Z,13.73
2023-03-18T09:20:41.853Z,13.73
2023-03-18T09:21:41.783Z,13.86
2023-03-18T09:22:41.800Z,13.86
2023-03-18T09:23:41.761Z,13.98
2023-03-18T09:24:41.729Z,14.08
2023-03-18T09:25:41.690Z,14.15
2023-03-18T09:26:41.756Z,14.22
2023-03-18T09:27:41.674Z,14.28
2023-03-18T09:28:41.629Z,14.31
2023-03-18T09:29:41.597Z,14.28
2023-03-18T09:30:41.889Z,14.41
2023-03-18T09:31:41.562Z,14.40
2023-03-18T09:32:41.564Z,14.40
2023-03-18T09:33:41.501Z,14.44
2023-03-18T09:34:41.493Z,14.40
2023-03-18T09:35:41.467Z,14.43
2023-03-18T09:36:41.437Z,14.49
2023-03-18T09:37:41.391Z,14.51
2023-03-18T09:38:41.394Z,14.52
2023-03-18T09:39:41.341Z,14.71
2023-03-18T09:40:41.321Z,14.73
2023-03-18T09:41:41.301Z,14.93
2023-03-18T09:42:41.292Z,14.96
2023-03-18T09:43:41.281Z,15.05
2023-03-18T09:44:41.238Z,15.02
2023-03-18T09:45:41.291Z,14.99
2023-03-18T09:46:41.485Z,15.12
2023-03-18T09:47:41.168Z,15.10
2023-03-18T09:48:41.135Z,15.14
2023-03-18T09:49:41.082Z,15.08
2023-03-18T09:50:41.058Z,15.12
2023-03-18T09:51:41.047Z,15.25
2023-03-18T09:52:41.045Z,15.26
2023-03-18T09:53:41.031Z,15.26
2023-03-18T09:54:41.015Z,15.43
2023-03-18T09:55:40.948Z,15.35
2023-03-18T09:56:40.975Z,15.41
2023-03-18T09:57:40.955Z,15.33
2023-03-18T09:58:40.890Z,15.43
2023-03-18T09:59:40.850Z,15.73
2023-03-18T10:00:40.849Z,16.12
2023-03-18T10:01:40.844Z,16.50
2023-03-18T10:02:40.800Z,16.82
2023-03-18T10:03:40.820Z,16.91
2023-03-18T10:04:40.731Z,16.92
2023-03-18T10:05:40.749Z,17.34
2023-03-18T10:06:40.708Z,17.44
2023-03-18T10:07:40.690Z,17.65
2023-03-18T10:08:40.637Z,17.80
2023-03-18T10:09:40.612Z,17.95
2023-03-18T10:10:40.606Z,17.98
2023-03-18T10:11:40.601Z,18.21
2023-03-18T10:12:40.581Z,18.41
2023-03-18T10:13:40.509Z,18.53
2023-03-18T10:14:40.522Z,18.71
2023-03-18T10:15:40.500Z,18.88
2023-03-18T10:16:40.448Z,18.98
2023-03-18T10:17:40.428Z,19.05
2023-03-18T10:18:40.428Z,19.16
2023-03-18T10:19:40.401Z,19.30
2023-03-18T10:20:40.360Z,19.30
2023-03-18T10:21:40.319Z,19.23
2023-03-18T10:22:40.320Z,19.24
2023-03-18T10:23:40.297Z,19.26
2023-03-18T10:24:40.264Z,19.29
2023-03-18T10:25:40.260Z,19.30
2023-03-18T10:26:40.249Z,19.41
2023-03-18T10:27:40.203Z,19.39
2023-03-18T10:28:40.200Z,19.47
2023-03-18T10:29:40.154Z,19.37
2023-03-18T10:30:40.162Z,19.27
2023-03-18T10:31:40.102Z,18.97
2023-03-18T10:32:49.600Z,18.88
2023-03-18T10:33:40.098Z,18.86
2023-03-18T10:34:40.083Z,18.73
2023-03-18T10:35:40.065Z,18.79
2023-03-18T10:36:40.041Z,19.08
2023-03-18T10:37:39.978Z,19.12
2023-03-18T10:38:39.948Z,19.52
2023-03-18T10:39:39.958Z,19.63
2023-03-18T10:40:39.942Z,19.70
2023-03-18T10:41:39.898Z,19.71
2023-03-18T10:42:39.899Z,19.81
2023-03-18T10:43:39.879Z,19.85
2023-03-18T10:44:39.834Z,19.77
2023-03-18T10:45:39.812Z,19.82
2023-03-18T10:46:40.019Z,19.81
2023-03-18T10:47:39.815Z,19.89
2023-03-18T10:48:39.761Z,19.59
2023-03-18T10:49:39.703Z,19.37
2023-03-18T10:50:39.724Z,18.96
2023-03-18T10:51:39.695Z,18.71
2023-03-18T10:52:39.662Z,18.45
2023-03-18T10:53:39.650Z,18.23
2023-03-18T10:54:39.636Z,18.13
2023-03-18T10:55:39.588Z,18.16
2023-03-18T10:56:39.571Z,18.06
2023-03-18T10:57:39.544Z,17.91
2023-03-18T10:58:39.573Z,17.72
2023-03-18T10:59:39.537Z,17.66
2023-03-18T11:00:39.523Z,17.52
2023-03-18T11:01:39.488Z,17.49
2023-03-18T11:02:39.511Z,17.41
2023-03-18T11:03:39.435Z,17.39
2023-03-18T11:04:39.404Z,17.32
2023-03-18T11:05:39.371Z,17.20
2023-03-18T11:06:39.372Z,17.13
2023-03-18T11:07:39.333Z,17.07
2023-03-18T11:08:39.337Z,17.02
2023-03-18T11:09:39.287Z,16.95
2023-03-18T11:10:39.305Z,16.95
2023-03-18T11:11:39.256Z,16.91
2023-03-18T11:12:39.255Z,16.92
2023-03-18T11:13:39.226Z,17.05
2023-03-18T11:14:39.193Z,17.22
2023-03-18T11:15:39.164Z,17.31
2023-03-18T11:16:39.213Z,17.39
2023-03-18T11:17:39.110Z,17.52
2023-03-18T11:18:39.122Z,17.63
2023-03-18T11:19:39.076Z,17.66
2023-03-18T11:20:39.064Z,17.65
2023-03-18T11:21:39.049Z,17.59
2023-03-18T11:22:39.057Z,17.63
2023-03-18T11:23:39.006Z,17.52
2023-03-18T11:24:39.014Z,17.53
2023-03-18T11:25:38.955Z,17.47
2023-03-18T11:26:39.005Z,17.38
2023-03-18T11:27:38.946Z,17.30
2023-03-18T11:28:38.915Z,17.22
2023-03-18T11:29:39.146Z,17.17
2023-03-18T11:30:38.993Z,17.16
2023-03-18T11:31:38.886Z,17.01
2023-03-18T11:32:38.856Z,17.14
2023-03-18T11:33:38.781Z,17.04
2023-03-18T11:34:38.760Z,17.01
2023-03-18T11:35:38.765Z,17.05
2023-03-18T11:36:38.734Z,17.07
2023-03-18T11:37:38.730Z,17.04
2023-03-18T11:38:38.642Z,17.04
2023-03-18T11:39:38.682Z,17.09
2023-03-18T11:40:38.602Z,17.01
2023-03-18T11:41:38.591Z,16.99
2023-03-18T11:42:38.598Z,16.99
2023-03-18T11:43:38.554Z,16.86
2023-03-18T11:44:38.570Z,16.79
2023-03-18T11:45:38.499Z,16.77
2023-03-18T11:46:38.531Z,16.76
2023-03-18T11:47:38.443Z,16.84
2023-03-18T11:48:38.444Z,16.83
2023-03-18T11:49:38.416Z,16.83
2023-03-18T11:50:38.387Z,16.91
2023-03-18T11:51:38.385Z,16.95
2023-03-18T11:52:38.379Z,16.87
2023-03-18T11:53:38.333Z,16.80
2023-03-18T11:54:38.363Z,16.79
2023-03-18T11:55:38.288Z,16.79
2023-03-18T11:56:38.271Z,16.64
2023-03-18T11:57:38.238Z,16.66
2023-03-18T11:58:38.210Z,16.76
2023-03-18T11:59:38.212Z,16.77
2023-03-18T12:00:38.168Z,16.73
2023-03-18T12:01:38.178Z,16.76
2023-03-18T12:02:38.164Z,16.68
2023-03-18T12:03:38.081Z,16.72
2023-03-18T12:04:38.147Z,16.73
2023-03-18T12:05:38.080Z,16.80
2023-03-18T12:06:38.043Z,16.74
2023-03-18T12:07:38.534Z,16.86
2023-03-18T12:08:38.037Z,16.97
2023-03-18T12:09:37.971Z,17.09
2023-03-18T12:10:37.990Z,17.14
2023-03-18T12:11:37.980Z,17.07
2023-03-18T12:12:37.884Z,16.91
2023-03-18T12:13:37.878Z,16.95
2023-03-18T12:14:37.887Z,17.04
2023-03-18T12:15:37.813Z,17.02
2023-03-18T12:16:37.837Z,17.16
2023-03-18T12:17:37.796Z,17.20
2023-03-18T12:18:37.854Z,17.19
2023-03-18T12:19:37.783Z,17.24
2023-03-18T12:20:37.752Z,17.28
2023-03-18T12:21:37.683Z,17.32
2023-03-18T12:22:37.707Z,17.30
2023-03-18T12:23:37.690Z,17.20
2023-03-18T12:24:37.685Z,17.19
2023-03-18T12:25:37.743Z,17.10
2023-03-18T12:26:38.067Z,17.16
2023-03-18T12:27:37.582Z,17.19
2023-03-18T12:28:37.617Z,17.13
2023-03-18T12:29:37.553Z,17.10
2023-03-18T12:30:37.503Z,17.16
2023-03-18T12:31:37.527Z,17.19
2023-03-18T12:32:37.493Z,17.04
2023-03-18T12:33:37.443Z,16.83
2023-03-18T12:34:37.444Z,16.97
2023-03-18T12:35:37.738Z,16.97
2023-03-18T12:36:37.384Z,17.07
2023-03-18T12:37:37.348Z,16.99
2023-03-18T12:38:37.359Z,16.99
2023-03-18T12:39:37.308Z,16.97
2023-03-18T12:40:37.343Z,16.97
2023-03-18T12:41:37.504Z,16.97
2023-03-18T12:42:37.260Z,17.01
2023-03-18T12:43:37.242Z,17.13
2023-03-18T12:44:37.224Z,17.17
2023-03-18T12:45:37.233Z,17.19
2023-03-18T12:46:37.159Z,17.14
2023-03-18T12:47:37.442Z,17.16
2023-03-18T12:48:44.005Z,17.19
2023-03-18T12:49:37.085Z,17.30
2023-03-18T12:50:37.080Z,17.30
2023-03-18T12:51:37.143Z,17.27
2023-03-18T12:52:37.033Z,17.34